首页
METAR-TAF:

METAR-TAF

机场 :

Torrington Municipal Airport

Torrington, 怀俄明州, 美国

纬度: 42-03-53N, 经度: 104-09-10W, 海拔: 1282米

当前天气观测

该预报发布于41分钟前的17:53 UTC
风速4节,风向多变
温度 12°C
湿度 32%
气压 1016 hPa
能見度: 16.1公里
散云层高于11000英尺

METAR: KTOR 301753Z AUTO VRB04KT 10SM SCT110 12/M04 A2999 RMK AO2 SLP157 T01171039 10122 21011 58001

时间: 12:34 (18:34 UTC)


TAF: 丢失

超过4000个机场的气象观测和天气预报(METAR&TAF报告)。

可查询的气象台以黄色和红色小点在地图上表示。

将鼠标移到小点上方,可查看气象台名称。

然后点击查看天气观测和预报。

如需切换地图:点击带黑十字的绿色按钮放大地图;点击带横线的绿色按钮缩小地图;或者点击绿色箭头查看邻近地区的地图。


METAR-TAF: